Time;durP1;ratioP1;P1;durP2;ratioP2;P2;SDS_P1;SDS_P2;PMS_P1;PMS_P2;Temp;Humidity;BMP_temperature;BMP_pressure;BME280_temperature;BME280_humidity;BME280_pressure;Samples;Min_cycle;Max_cycle;Signal;HPM_P1;HPM_P2
2024/02/09 00:03:35;;;;;;;149.10;60.20;;;;;;;;;;12913483;23;20384;-90
2024/02/09 00:08:40;;;;;;;142.13;61.40;;;;;;;;;;12920487;23;20399;-90
2024/02/09 00:13:43;;;;;;;134.83;58.23;;;;;;;;;;12941673;23;20407;-90
2024/02/09 00:18:46;;;;;;;145.70;59.35;;;;;;;;;;12941267;23;20368;-89
2024/02/09 00:23:48;;;;;;;137.60;57.97;;;;;;;;;;12939817;23;20442;-90
2024/02/09 00:28:52;;;;;;;138.57;58.97;;;;;;;;;;12913144;23;20394;-90
2024/02/09 00:33:54;;;;;;;151.23;60.53;;;;;;;;;;12915824;23;20388;-89
2024/02/09 00:38:57;;;;;;;142.50;58.80;;;;;;;;;;12918810;23;20537;-90
2024/02/09 00:44:00;;;;;;;144.73;60.17;;;;;;;;;;12915310;23;20372;-90
2024/02/09 00:49:04;;;;;;;154.55;61.65;;;;;;;;;;12914110;23;20847;-90
2024/02/09 00:54:06;;;;;;;150.98;63.10;;;;;;;;;;12917582;23;20753;-89
2024/02/09 00:59:10;;;;;;;152.15;62.33;;;;;;;;;;12919883;23;20426;-89
2024/02/09 01:04:13;;;;;;;150.95;65.07;;;;;;;;;;12920217;23;20418;-90
2024/02/09 01:09:15;;;;;;;155.95;63.67;;;;;;;;;;12919453;23;20670;-89
2024/02/09 02:45:12;;;;;;;126.43;50.05;;;;;;;;;;12806440;23;20390;-85
2024/02/09 03:06:17;;;;;;;115.38;47.60;;;;;;;;;;12818569;23;20382;-85
2024/02/09 03:11:19;;;;;;;123.10;49.40;;;;;;;;;;12799593;23;20910;-85
2024/02/09 03:16:21;;;;;;;115.67;46.90;;;;;;;;;;12789804;23;20441;-85
2024/02/09 03:21:27;;;;;;;127.53;49.30;;;;;;;;;;12791506;23;20375;-85
2024/02/09 03:26:30;;;;;;;122.17;48.53;;;;;;;;;;12790848;23;20368;-85
2024/02/09 03:31:32;;;;;;;122.20;48.77;;;;;;;;;;12790332;23;20450;-86
2024/02/09 03:36:36;;;;;;;127.57;50.97;;;;;;;;;;12790932;23;20708;-85
2024/02/09 03:41:38;;;;;;;127.97;50.70;;;;;;;;;;12811143;23;20367;-86
2024/02/09 03:46:40;;;;;;;139.15;52.65;;;;;;;;;;12810969;23;20372;-85
2024/02/09 03:51:44;;;;;;;137.77;52.17;;;;;;;;;;12789783;23;20410;-86
2024/02/09 03:56:47;;;;;;;120.83;49.87;;;;;;;;;;12790162;23;20367;-85
2024/02/09 04:01:49;;;;;;;125.80;50.90;;;;;;;;;;12791821;23;20674;-85
2024/02/09 04:06:53;;;;;;;126.32;50.70;;;;;;;;;;12803559;23;20418;-86
2024/02/09 04:11:56;;;;;;;134.48;52.90;;;;;;;;;;12791017;23;20379;-85
2024/02/09 04:16:59;;;;;;;124.30;49.33;;;;;;;;;;12790200;23;20371;-85
2024/02/09 04:22:04;;;;;;;129.98;51.70;;;;;;;;;;12790586;23;20423;-85
2024/02/09 04:27:06;;;;;;;133.90;51.60;;;;;;;;;;12791117;23;20364;-86
2024/02/09 04:32:09;;;;;;;122.88;49.70;;;;;;;;;;12789101;23;20396;-85
2024/02/09 04:37:13;;;;;;;120.90;48.47;;;;;;;;;;12790325;23;20442;-85
2024/02/09 04:42:16;;;;;;;121.65;49.05;;;;;;;;;;12789933;23;20407;-85
2024/02/09 04:47:19;;;;;;;121.88;47.80;;;;;;;;;;12792426;23;20438;-86
2024/02/09 04:52:27;;;;;;;128.33;49.43;;;;;;;;;;12794481;23;20712;-85
2024/02/09 04:57:29;;;;;;;120.67;47.80;;;;;;;;;;12793492;23;20367;-85
2024/02/09 05:02:34;;;;;;;126.97;47.50;;;;;;;;;;12808473;23;20430;-85
2024/02/09 05:07:38;;;;;;;123.50;48.10;;;;;;;;;;12797819;23;20371;-85
2024/02/09 05:12:42;;;;;;;130.82;48.88;;;;;;;;;;12811517;23;20418;-85
2024/02/09 05:17:44;;;;;;;115.07;46.37;;;;;;;;;;12797679;23;20368;-85
2024/02/09 05:22:48;;;;;;;113.90;46.10;;;;;;;;;;12793958;23;20463;-86
2024/02/09 05:27:50;;;;;;;113.65;45.05;;;;;;;;;;12793361;23;20368;-85
2024/02/09 05:32:53;;;;;;;117.30;46.43;;;;;;;;;;12792436;23;20506;-86
2024/02/09 05:37:57;;;;;;;109.68;43.58;;;;;;;;;;12792414;23;20380;-86
2024/02/09 05:43:00;;;;;;;113.40;45.87;;;;;;;;;;12792402;23;20375;-85
2024/02/09 05:48:05;;;;;;;115.03;46.17;;;;;;;;;;12789345;23;20894;-85
2024/02/09 05:53:09;;;;;;;121.97;47.35;;;;;;;;;;12790677;23;20450;-85
2024/02/09 05:58:11;;;;;;;117.68;45.05;;;;;;;;;;12799597;23;20368;-85
2024/02/09 06:03:14;;;;;;;120.13;46.25;;;;;;;;;;12795170;23;20371;-84
2024/02/09 06:08:17;;;;;;;104.30;44.85;;;;;;;;;;12789723;23;20426;-84
2024/02/09 06:13:19;;;;;;;113.60;45.13;;;;;;;;;;12788679;23;20825;-84
2024/02/09 06:18:22;;;;;;;114.77;45.53;;;;;;;;;;12791005;23;20446;-85
2024/02/09 06:23:26;;;;;;;123.30;50.73;;;;;;;;;;12787359;23;20832;-85
2024/02/09 06:28:28;;;;;;;109.20;45.93;;;;;;;;;;12789807;23;20384;-85
2024/02/09 06:33:31;;;;;;;116.78;45.80;;;;;;;;;;12790440;23;20430;-85
2024/02/09 06:38:36;;;;;;;114.68;47.67;;;;;;;;;;12787406;23;20876;-86
2024/02/09 06:43:39;;;;;;;114.47;46.42;;;;;;;;;;12789535;23;20375;-86
2024/02/09 06:48:41;;;;;;;116.07;46.95;;;;;;;;;;12788175;23;20434;-84
2024/02/09 06:53:45;;;;;;;106.55;45.50;;;;;;;;;;12785282;23;20686;-84
2024/02/09 06:58:47;;;;;;;109.97;46.22;;;;;;;;;;12784618;23;20372;-85
2024/02/09 07:03:50;;;;;;;107.13;44.33;;;;;;;;;;12786375;23;20399;-85
2024/02/09 07:08:55;;;;;;;108.22;44.60;;;;;;;;;;12782179;23;20376;-84
2024/02/09 07:13:57;;;;;;;109.97;46.13;;;;;;;;;;12782803;23;20387;-84
2024/02/09 07:19:00;;;;;;;107.87;45.73;;;;;;;;;;12785342;23;20376;-83
2024/02/09 07:24:04;;;;;;;104.88;40.88;;;;;;;;;;12789775;23;20430;-84
2024/02/09 07:29:07;;;;;;;97.22;40.58;;;;;;;;;;12790642;23;20396;-85
2024/02/09 07:34:12;;;;;;;101.03;39.33;;;;;;;;;;12809683;23;20445;-85
2024/02/09 07:39:15;;;;;;;103.18;41.40;;;;;;;;;;12790195;23;20418;-84
2024/02/09 07:44:18;;;;;;;101.23;40.50;;;;;;;;;;12790497;23;20441;-85
2024/02/09 07:49:20;;;;;;;92.38;38.70;;;;;;;;;;12790777;23;20434;-84
2024/02/09 07:54:26;;;;;;;98.07;38.05;;;;;;;;;;12805954;23;20775;-85
2024/02/09 07:59:28;;;;;;;89.07;37.43;;;;;;;;;;12790541;23;20371;-83
2024/02/09 08:04:31;;;;;;;89.20;37.37;;;;;;;;;;12790368;23;20368;-83
2024/02/09 08:09:35;;;;;;;88.00;38.63;;;;;;;;;;12789137;23;20844;-83
2024/02/09 08:14:37;;;;;;;96.50;38.75;;;;;;;;;;12789933;23;20384;-83
2024/02/09 08:19:39;;;;;;;91.97;38.72;;;;;;;;;;12790171;23;20360;-84
2024/02/09 08:24:43;;;;;;;87.55;38.28;;;;;;;;;;12788488;23;20372;-84
2024/02/09 08:29:45;;;;;;;97.07;39.60;;;;;;;;;;12790216;23;20372;-83
2024/02/09 08:34:50;;;;;;;92.73;37.87;;;;;;;;;;12788559;23;20469;-84
2024/02/09 08:39:54;;;;;;;91.88;38.47;;;;;;;;;;12788946;23;20898;-84
2024/02/09 08:44:57;;;;;;;91.40;39.80;;;;;;;;;;12788940;23;20367;-84
2024/02/09 08:50:00;;;;;;;103.40;41.72;;;;;;;;;;12812067;23;20403;-85
2024/02/09 08:55:04;;;;;;;91.38;37.60;;;;;;;;;;12804687;23;20379;-85
2024/02/09 09:00:08;;;;;;;89.30;38.15;;;;;;;;;;12797300;23;20371;-86
2024/02/09 09:05:10;;;;;;;90.77;38.73;;;;;;;;;;12804626;23;20368;-84
2024/02/09 09:10:14;;;;;;;87.63;39.03;;;;;;;;;;12792883;23;20371;-86
2024/02/09 09:15:16;;;;;;;86.43;37.65;;;;;;;;;;12789516;23;20384;-85
2024/02/09 09:20:19;;;;;;;82.77;38.17;;;;;;;;;;12788729;23;20832;-86
2024/02/09 09:25:23;;;;;;;85.25;36.92;;;;;;;;;;12788250;23;20450;-85
2024/02/09 09:30:26;;;;;;;82.95;36.15;;;;;;;;;;12789417;23;20516;-85
2024/02/09 09:35:28;;;;;;;82.78;35.60;;;;;;;;;;12812708;23;20390;-84
2024/02/09 09:40:34;;;;;;;82.43;35.20;;;;;;;;;;12793266;23;20372;-85
2024/02/09 09:45:37;;;;;;;79.25;35.22;;;;;;;;;;12793614;23;20916;-86
2024/02/09 09:50:40;;;;;;;81.87;35.50;;;;;;;;;;12809268;23;20368;-86
2024/02/09 09:55:46;;;;;;;81.90;34.13;;;;;;;;;;12814431;23;20384;-86
2024/02/09 10:00:51;;;;;;;79.03;34.58;;;;;;;;;;12794175;23;20867;-85
2024/02/09 10:05:55;;;;;;;76.80;33.33;;;;;;;;;;12793855;23;21383;-86
2024/02/09 10:11:01;;;;;;;71.55;31.73;;;;;;;;;;12793179;23;20371;-85
2024/02/09 10:16:05;;;;;;;68.63;30.08;;;;;;;;;;12791407;23;20463;-84
2024/02/09 10:21:08;;;;;;;68.40;30.45;;;;;;;;;;12813406;23;20775;-86
2024/02/09 10:26:13;;;;;;;69.38;30.65;;;;;;;;;;12812960;23;20498;-86
2024/02/09 10:31:16;;;;;;;68.13;30.63;;;;;;;;;;12792360;23;20458;-85
2024/02/09 10:36:18;;;;;;;65.18;30.38;;;;;;;;;;12791775;23;20454;-86
2024/02/09 10:41:25;;;;;;;62.55;28.30;;;;;;;;;;12791486;23;20372;-85
2024/02/09 10:46:29;;;;;;;62.45;28.45;;;;;;;;;;12793331;23;20376;-85
2024/02/09 10:51:35;;;;;;;66.07;30.08;;;;;;;;;;12811606;23;20380;-85
2024/02/09 10:56:40;;;;;;;61.22;27.70;;;;;;;;;;12792428;23;20803;-85
2024/02/09 11:01:44;;;;;;;52.25;25.23;;;;;;;;;;12792166;23;20495;-83
2024/02/09 11:06:49;;;;;;;54.95;24.65;;;;;;;;;;12790684;23;20406;-82
2024/02/09 11:11:53;;;;;;;52.08;24.08;;;;;;;;;;12791100;23;21075;-83
2024/02/09 11:16:55;;;;;;;55.10;24.58;;;;;;;;;;12791897;23;20387;-82
2024/02/09 11:21:58;;;;;;;54.67;24.95;;;;;;;;;;12791067;23;20434;-82
2024/02/09 11:27:04;;;;;;;56.50;25.55;;;;;;;;;;12789916;23;20740;-82
2024/02/09 11:32:07;;;;;;;54.67;24.07;;;;;;;;;;12790325;23;20442;-82
2024/02/09 11:37:09;;;;;;;52.00;23.80;;;;;;;;;;12790328;23;20461;-82
2024/02/09 11:42:13;;;;;;;51.88;23.17;;;;;;;;;;12790617;23;20403;-82
2024/02/09 11:47:16;;;;;;;47.00;21.88;;;;;;;;;;12819637;23;20368;-82
2024/02/09 11:52:20;;;;;;;45.57;22.70;;;;;;;;;;12812539;23;20376;-82
2024/02/09 11:57:25;;;;;;;51.35;23.30;;;;;;;;;;12789597;23;20418;-82
2024/02/09 12:02:28;;;;;;;49.85;24.13;;;;;;;;;;12790329;23;20372;-83
2024/02/09 12:07:31;;;;;;;53.38;24.38;;;;;;;;;;12789519;23;20456;-82
2024/02/09 12:12:35;;;;;;;55.90;25.40;;;;;;;;;;12809935;23;20863;-85
2024/02/09 12:17:38;;;;;;;54.75;23.80;;;;;;;;;;12778564;23;20938;-86
2024/02/09 12:22:41;;;;;;;51.40;24.10;;;;;;;;;;12779947;23;20372;-87
2024/02/09 12:27:46;;;;;;;52.60;24.10;;;;;;;;;;12780648;23;20895;-87
2024/02/09 12:32:48;;;;;;;50.23;24.03;;;;;;;;;;12779790;23;20376;-82
2024/02/09 12:37:52;;;;;;;53.23;24.77;;;;;;;;;;12779097;23;20395;-83
2024/02/09 12:42:56;;;;;;;54.28;24.90;;;;;;;;;;12779777;23;20388;-83
2024/02/09 12:47:58;;;;;;;55.15;25.38;;;;;;;;;;12793166;23;20414;-82
2024/02/09 12:53:03;;;;;;;49.88;24.15;;;;;;;;;;12780117;23;20486;-82
2024/02/09 12:58:10;;;;;;;50.72;23.67;;;;;;;;;;12778284;23;21206;-83
2024/02/09 13:03:12;;;;;;;52.55;24.83;;;;;;;;;;12775403;23;20403;-83
2024/02/09 13:08:15;;;;;;;51.00;24.38;;;;;;;;;;12779064;23;20434;-83
2024/02/09 13:13:19;;;;;;;52.33;24.10;;;;;;;;;;12780322;23;20454;-83
2024/02/09 13:18:21;;;;;;;51.25;22.38;;;;;;;;;;12781050;23;20441;-83
2024/02/09 13:23:24;;;;;;;50.75;23.45;;;;;;;;;;12778953;23;20429;-83
2024/02/09 13:28:29;;;;;;;46.55;21.75;;;;;;;;;;12782019;23;20844;-83
2024/02/09 13:33:32;;;;;;;46.87;21.60;;;;;;;;;;12783739;23;20414;-82
2024/02/09 13:38:36;;;;;;;42.93;21.70;;;;;;;;;;12780999;23;20387;-86
2024/02/09 13:43:40;;;;;;;48.28;22.38;;;;;;;;;;12787855;23;20439;-86
2024/02/09 13:48:42;;;;;;;45.15;22.80;;;;;;;;;;12800408;23;20371;-85
2024/02/09 13:53:45;;;;;;;49.65;22.38;;;;;;;;;;12784528;23;20379;-85
2024/02/09 13:58:48;;;;;;;46.58;21.88;;;;;;;;;;12784717;23;20384;-85
2024/02/09 14:03:51;;;;;;;42.25;20.60;;;;;;;;;;12783159;23;20924;-84
2024/02/09 14:08:55;;;;;;;46.35;22.08;;;;;;;;;;12782131;23;20422;-85
2024/02/09 14:13:59;;;;;;;46.53;22.13;;;;;;;;;;12783556;23;20368;-86
2024/02/09 14:19:04;;;;;;;49.97;23.33;;;;;;;;;;12784252;23;20391;-85
2024/02/09 14:24:07;;;;;;;47.65;22.88;;;;;;;;;;12786400;23;20360;-85
2024/02/09 14:29:13;;;;;;;47.97;23.48;;;;;;;;;;12781346;23;20376;-86
2024/02/09 14:34:15;;;;;;;45.60;22.13;;;;;;;;;;12785879;23;20426;-85
2024/02/09 14:39:17;;;;;;;47.57;22.63;;;;;;;;;;12785761;23;20395;-85
2024/02/09 14:44:21;;;;;;;48.53;22.97;;;;;;;;;;12822870;23;20464;-85
2024/02/09 14:49:24;;;;;;;47.67;23.05;;;;;;;;;;12784038;23;20453;-86
2024/02/09 14:54:27;;;;;;;45.67;23.27;;;;;;;;;;12804346;23;20446;-86
2024/02/09 14:59:31;;;;;;;41.20;20.70;;;;;;;;;;12782576;23;20442;-86
2024/02/09 15:04:39;;;;;;;42.33;21.15;;;;;;;;;;12781969;23;20450;-85
2024/02/09 15:09:41;;;;;;;42.93;20.87;;;;;;;;;;12781408;23;20520;-84
2024/02/09 15:14:45;;;;;;;45.63;21.30;;;;;;;;;;12783663;23;20456;-81
2024/02/09 15:19:47;;;;;;;41.45;19.63;;;;;;;;;;12788057;23;20454;-82
2024/02/09 15:24:50;;;;;;;39.97;19.70;;;;;;;;;;12788798;23;20371;-84
2024/02/09 15:29:54;;;;;;;38.42;19.20;;;;;;;;;;12788850;23;20383;-83
2024/02/09 15:34:57;;;;;;;38.40;19.15;;;;;;;;;;12778700;23;20450;-83
2024/02/09 15:39:59;;;;;;;35.20;18.40;;;;;;;;;;12785296;23;20855;-83
2024/02/09 15:45:03;;;;;;;38.90;18.30;;;;;;;;;;12785033;23;20376;-84
2024/02/09 15:50:08;;;;;;;39.40;19.17;;;;;;;;;;12773777;23;20480;-84
2024/02/09 15:55:13;;;;;;;36.60;18.08;;;;;;;;;;12775179;23;20371;-84
2024/02/09 16:00:20;;;;;;;37.10;18.00;;;;;;;;;;12774281;23;20387;-83
2024/02/09 16:05:24;;;;;;;37.77;17.47;;;;;;;;;;12778927;23;20379;-86
2024/02/09 16:10:26;;;;;;;38.97;18.05;;;;;;;;;;12782663;23;20432;-87
2024/02/09 16:15:31;;;;;;;36.28;18.25;;;;;;;;;;12784515;23;20709;-85
2024/02/09 16:20:33;;;;;;;36.63;18.23;;;;;;;;;;12776423;23;20438;-84
2024/02/09 16:25:36;;;;;;;40.35;18.55;;;;;;;;;;12781403;23;20388;-85
2024/02/09 16:30:39;;;;;;;37.00;17.97;;;;;;;;;;12788886;23;20426;-85
2024/02/09 16:35:45;;;;;;;37.88;18.77;;;;;;;;;;12798673;23;20395;-82
2024/02/09 16:40:47;;;;;;;36.47;18.77;;;;;;;;;;12784138;23;20444;-82
2024/02/09 16:45:51;;;;;;;35.80;17.88;;;;;;;;;;12776344;23;20458;-82
2024/02/09 16:50:54;;;;;;;37.50;17.70;;;;;;;;;;12778020;23;20418;-84
2024/02/09 16:55:56;;;;;;;33.47;17.83;;;;;;;;;;12774268;23;20449;-86
2024/02/09 17:01:00;;;;;;;33.67;17.83;;;;;;;;;;12778809;23;20458;-87
2024/02/09 17:06:02;;;;;;;32.83;18.80;;;;;;;;;;12777986;23;20875;-83
2024/02/09 17:11:06;;;;;;;33.38;16.88;;;;;;;;;;12778412;23;20434;-83
2024/02/09 17:16:10;;;;;;;33.90;19.27;;;;;;;;;;12778255;23;20712;-85
2024/02/09 17:21:17;;;;;;;36.38;19.25;;;;;;;;;;12777260;23;20379;-85
2024/02/09 17:26:21;;;;;;;34.33;17.77;;;;;;;;;;12783360;23;20847;-85
2024/02/09 17:31:25;;;;;;;33.38;18.83;;;;;;;;;;12780315;23;20375;-84
2024/02/09 17:36:28;;;;;;;34.42;18.50;;;;;;;;;;12784053;23;20395;-86
2024/02/09 17:41:30;;;;;;;35.43;18.63;;;;;;;;;;12782102;23;20446;-88
2024/02/09 17:46:34;;;;;;;34.47;18.47;;;;;;;;;;12781153;23;20391;-87
2024/02/09 17:51:37;;;;;;;37.80;19.63;;;;;;;;;;12780920;23;20383;-87
2024/02/09 17:56:39;;;;;;;37.87;21.10;;;;;;;;;;12781702;23;20721;-84
2024/02/09 18:01:43;;;;;;;35.67;20.47;;;;;;;;;;12783265;23;20423;-87
2024/02/09 18:06:46;;;;;;;39.53;20.83;;;;;;;;;;12782583;23;20383;-87
2024/02/09 18:11:48;;;;;;;34.93;18.87;;;;;;;;;;12781661;23;20418;-86
2024/02/09 18:16:52;;;;;;;36.60;21.03;;;;;;;;;;12783372;23;20392;-88
2024/02/09 18:21:55;;;;;;;37.88;18.20;;;;;;;;;;12796807;23;20383;-86
2024/02/09 18:26:58;;;;;;;42.30;21.63;;;;;;;;;;12787341;23;20380;-87
2024/02/09 18:32:02;;;;;;;37.10;21.27;;;;;;;;;;12781715;23;20380;-85
2024/02/09 18:37:04;;;;;;;48.38;24.15;;;;;;;;;;12784073;23;20450;-86
2024/02/09 18:42:07;;;;;;;49.25;25.48;;;;;;;;;;12780258;23;20384;-87
2024/02/09 18:47:11;;;;;;;44.90;25.27;;;;;;;;;;12782565;23;20387;-85
2024/02/09 18:52:13;;;;;;;45.58;24.50;;;;;;;;;;12780119;23;20384;-87
2024/02/09 18:57:16;;;;;;;38.25;20.73;;;;;;;;;;12777584;23;20442;-86
2024/02/09 19:02:20;;;;;;;39.15;20.52;;;;;;;;;;12775707;23;20383;-87
2024/02/09 19:07:22;;;;;;;36.87;20.13;;;;;;;;;;12774216;23;20421;-87
2024/02/09 19:12:27;;;;;;;34.97;20.63;;;;;;;;;;12778091;23;20372;-87
2024/02/09 19:17:34;;;;;;;37.00;20.10;;;;;;;;;;12781762;23;20840;-87
2024/02/09 19:22:37;;;;;;;36.67;20.50;;;;;;;;;;12779167;23;20454;-87
2024/02/09 19:27:40;;;;;;;34.08;18.83;;;;;;;;;;12783353;23;20384;-87
2024/02/09 19:32:45;;;;;;;33.60;19.50;;;;;;;;;;12790840;23;20387;-87
2024/02/09 19:37:50;;;;;;;34.43;19.13;;;;;;;;;;12781401;23;20450;-86
2024/02/09 19:42:52;;;;;;;38.08;21.70;;;;;;;;;;12782712;23;20388;-87
2024/02/09 19:47:56;;;;;;;37.85;20.48;;;;;;;;;;12781319;23;20388;-83
2024/02/09 19:52:58;;;;;;;35.50;20.38;;;;;;;;;;12781712;23;20383;-83
2024/02/09 19:58:02;;;;;;;34.70;19.40;;;;;;;;;;12780530;23;20507;-84
2024/02/09 20:03:08;;;;;;;35.73;20.03;;;;;;;;;;12781005;23;20379;-84
2024/02/09 20:08:10;;;;;;;34.60;20.42;;;;;;;;;;12781422;23;20442;-83
2024/02/09 20:13:13;;;;;;;34.00;18.35;;;;;;;;;;12779800;23;20446;-86
2024/02/09 20:18:20;;;;;;;32.87;19.10;;;;;;;;;;12782998;23;20867;-87
2024/02/09 20:23:22;;;;;;;36.50;19.77;;;;;;;;;;12786852;23;20380;-87
2024/02/09 20:28:25;;;;;;;33.63;17.77;;;;;;;;;;12798043;23;20437;-86
2024/02/09 20:33:29;;;;;;;33.17;18.92;;;;;;;;;;12779710;23;20384;-85
2024/02/09 20:38:31;;;;;;;35.57;19.03;;;;;;;;;;12781560;23;20856;-86
2024/02/09 20:43:35;;;;;;;31.20;17.33;;;;;;;;;;12780327;23;20380;-86
2024/02/09 20:48:40;;;;;;;31.20;17.30;;;;;;;;;;12778422;23;20391;-85
2024/02/09 20:53:46;;;;;;;30.07;17.57;;;;;;;;;;12778622;23;20446;-86
2024/02/09 20:58:51;;;;;;;29.70;16.83;;;;;;;;;;12775954;23;20388;-86
2024/02/09 21:03:58;;;;;;;29.27;17.77;;;;;;;;;;12777019;23;20438;-86
2024/02/09 21:09:04;;;;;;;28.50;16.73;;;;;;;;;;12777001;23;20394;-85
2024/02/09 21:14:08;;;;;;;26.90;17.05;;;;;;;;;;12776792;23;20691;-85
2024/02/09 21:19:14;;;;;;;30.63;17.03;;;;;;;;;;12777618;23;20384;-86
2024/02/09 21:24:17;;;;;;;32.10;17.30;;;;;;;;;;12777845;23;20458;-86
2024/02/09 21:29:19;;;;;;;31.43;17.07;;;;;;;;;;12787894;23;20379;-85
2024/02/09 21:34:23;;;;;;;31.23;17.67;;;;;;;;;;12781448;23;20458;-87
2024/02/09 21:39:25;;;;;;;28.85;17.40;;;;;;;;;;12784346;23;20388;-89
2024/02/09 21:44:30;;;;;;;29.05;17.60;;;;;;;;;;12789952;23;20379;-89
2024/02/09 21:49:37;;;;;;;31.60;18.23;;;;;;;;;;12788985;23;20414;-89
2024/02/09 21:54:39;;;;;;;30.63;18.05;;;;;;;;;;12788389;23;20438;-86
2024/02/09 21:59:42;;;;;;;35.35;18.63;;;;;;;;;;12790589;23;20954;-88
2024/02/09 22:04:46;;;;;;;31.63;17.73;;;;;;;;;;12806027;23;20379;-88
2024/02/09 22:09:49;;;;;;;33.03;19.27;;;;;;;;;;12788384;23;20399;-89
2024/02/09 22:14:53;;;;;;;32.60;19.80;;;;;;;;;;12790721;23;20450;-88
2024/02/09 22:19:57;;;;;;;36.20;20.23;;;;;;;;;;12790306;23;20383;-89
2024/02/09 22:25:00;;;;;;;35.72;19.27;;;;;;;;;;12793464;23;20413;-89
2024/02/09 22:30:06;;;;;;;33.60;18.77;;;;;;;;;;12782971;23;20439;-89
2024/02/09 22:35:11;;;;;;;33.93;19.93;;;;;;;;;;12784637;23;20438;-89
2024/02/09 22:40:17;;;;;;;36.22;18.92;;;;;;;;;;12784934;23;20423;-90
2024/02/09 22:45:20;;;;;;;34.65;18.88;;;;;;;;;;12806168;23;20360;-89
2024/02/09 22:50:25;;;;;;;33.42;17.30;;;;;;;;;;12787017;23;20627;-88
2024/02/09 22:55:28;;;;;;;34.58;18.33;;;;;;;;;;12790585;23;20422;-89
2024/02/09 23:00:35;;;;;;;32.42;17.02;;;;;;;;;;12794910;23;20384;-88
2024/02/09 23:05:40;;;;;;;35.17;17.02;;;;;;;;;;12793430;23;20383;-88
2024/02/09 23:10:43;;;;;;;30.75;16.75;;;;;;;;;;12795483;23;20438;-88
2024/02/09 23:15:47;;;;;;;25.60;14.37;;;;;;;;;;12816237;23;20434;-89
2024/02/09 23:20:56;;;;;;;27.33;14.05;;;;;;;;;;12808746;23;20388;-88
2024/02/09 23:25:58;;;;;;;25.50;13.20;;;;;;;;;;12797844;23;20368;-89
2024/02/09 23:31:01;;;;;;;26.15;12.85;;;;;;;;;;12816187;23;20372;-89
2024/02/09 23:36:06;;;;;;;27.30;13.82;;;;;;;;;;12793623;23;20434;-89
2024/02/09 23:41:08;;;;;;;24.98;12.38;;;;;;;;;;12794792;23;20388;-89
2024/02/09 23:46:11;;;;;;;26.43;13.63;;;;;;;;;;12795732;23;20399;-88
2024/02/09 23:51:15;;;;;;;25.25;13.18;;;;;;;;;;12795605;23;20368;-89
2024/02/09 23:56:19;;;;;;;28.33;13.30;;;;;;;;;;12795337;23;20399;-88
